Time;durP1;ratioP1;P1;durP2;ratioP2;P2;SDS_P1;SDS_P2;PMS_P1;PMS_P2;Temp;Humidity;BMP_temperature;BMP_pressure;BME280_temperature;BME280_humidity;BME280_pressure;Samples;Min_cycle;Max_cycle;Signal;HPM_P1;HPM_P2
2022/10/24 00:02:25;;;;;;;1.60;1.17;;;11.70;99.90;;;;;;5029556;28;20033;-75
2022/10/24 00:04:50;;;;;;;0.38;0.38;;;11.70;99.90;;;;;;5028904;28;20041;-74
2022/10/24 00:07:16;;;;;;;0.43;0.43;;;11.60;99.90;;;;;;5028277;28;20461;-75
2022/10/24 00:09:41;;;;;;;0.30;0.30;;;11.60;99.90;;;;;;5030261;28;20104;-74
2022/10/24 00:12:08;;;;;;;0.43;0.43;;;11.60;99.90;;;;;;5030173;28;20029;-73
2022/10/24 00:14:34;;;;;;;0.30;0.30;;;11.70;99.90;;;;;;5024813;28;20029;-74
2022/10/24 00:17:00;;;;;;;0.40;0.40;;;11.60;99.90;;;;;;5029745;28;20460;-75
2022/10/24 00:19:26;;;;;;;0.43;0.43;;;11.60;99.90;;;;;;5029497;28;20040;-74
2022/10/24 00:21:51;;;;;;;0.80;0.80;;;11.60;99.90;;;;;;5031126;28;20029;-73
2022/10/24 00:24:17;;;;;;;0.40;0.40;;;11.60;99.90;;;;;;5028540;28;20037;-73
2022/10/24 00:26:43;;;;;;;0.50;0.50;;;11.50;99.90;;;;;;5030318;28;20036;-74
2022/10/24 00:29:09;;;;;;;0.33;0.33;;;11.50;99.90;;;;;;5029961;28;20473;-74
2022/10/24 00:31:35;;;;;;;0.43;0.43;;;11.40;99.90;;;;;;5031009;28;20493;-74
2022/10/24 00:34:03;;;;;;;0.40;0.40;;;11.40;99.90;;;;;;5027655;28;20045;-74
2022/10/24 00:36:28;;;;;;;0.65;0.63;;;11.40;99.90;;;;;;5030879;28;20108;-74
2022/10/24 00:38:54;;;;;;;1.70;1.23;;;11.30;99.90;;;;;;5030087;28;20143;-75
2022/10/24 00:41:23;;;;;;;0.50;0.50;;;11.30;99.90;;;;;;5031549;28;20064;-74
2022/10/24 00:43:50;;;;;;;1.10;1.00;;;11.20;99.90;;;;;;5029788;28;20082;-75
2022/10/24 00:46:16;;;;;;;0.88;0.88;;;11.20;99.90;;;;;;5027823;28;20169;-75
2022/10/24 00:48:44;;;;;;;;;;;11.20;99.90;;;;;;5029215;28;20448;-73
2022/10/24 00:51:14;;;;;;;0.50;0.50;;;11.30;99.90;;;;;;5031285;28;19913;-73
2022/10/24 00:53:44;;;;;;;0.52;0.52;;;11.30;99.90;;;;;;5028789;28;20037;-74
2022/10/24 00:56:11;;;;;;;0.55;0.52;;;11.30;99.90;;;;;;5027627;28;20037;-74
2022/10/24 00:58:38;;;;;;;0.30;0.30;;;11.30;99.90;;;;;;5044133;28;20033;-74
2022/10/24 01:01:04;;;;;;;1.15;1.15;;;11.20;99.90;;;;;;5030434;28;20038;-73
2022/10/24 01:03:30;;;;;;;2.13;1.30;;;11.30;99.90;;;;;;5027937;28;20376;-74
2022/10/24 01:06:29;;;;;;;0.80;0.80;;;11.30;99.90;;;;;;5027793;28;20025;-73
2022/10/24 01:09:21;;;;;;;1.45;1.05;;;11.30;99.90;;;;;;5028751;28;20396;-74
2022/10/24 01:11:52;;;;;;;0.30;0.30;;;11.30;99.90;;;;;;5028431;28;20033;-73
2022/10/24 01:14:26;;;;;;;0.40;0.40;;;11.40;99.90;;;;;;5029107;28;20045;-75
2022/10/24 01:17:06;;;;;;;0.32;0.32;;;11.40;99.90;;;;;;5029485;28;20036;-74
2022/10/24 01:19:54;;;;;;;0.32;0.32;;;11.40;99.90;;;;;;5028773;28;20040;-74
2022/10/24 01:22:31;;;;;;;0.82;0.82;;;11.40;99.90;;;;;;5028491;28;20044;-74
2022/10/24 01:25:28;;;;;;;1.43;1.33;;;11.40;99.90;;;;;;5029326;28;20026;-73
2022/10/24 01:28:06;;;;;;;0.45;0.45;;;11.40;99.90;;;;;;5029486;28;20038;-73
2022/10/24 01:30:40;;;;;;;1.27;1.17;;;11.40;99.90;;;;;;5029658;28;20042;-73
2022/10/24 01:33:18;;;;;;;0.88;0.88;;;11.30;99.90;;;;;;5028210;28;20065;-74
2022/10/24 01:36:06;;;;;;;0.98;0.90;;;11.30;99.90;;;;;;5028199;28;20033;-74
2022/10/24 01:38:34;;;;;;;;;;;11.30;99.90;;;;;;5030310;28;20532;-74
2022/10/24 01:41:13;;;;;;;0.60;0.60;;;11.30;99.90;;;;;;5030808;28;20408;-75
2022/10/24 01:43:44;;;;;;;0.55;0.55;;;11.20;99.90;;;;;;5029279;28;20091;-74
2022/10/24 01:46:14;;;;;;;0.40;0.40;;;11.30;99.90;;;;;;5028286;28;20057;-74
2022/10/24 01:48:45;;;;;;;0.52;0.52;;;11.20;99.90;;;;;;5030329;28;20041;-74
2022/10/24 01:51:14;;;;;;;0.50;0.50;;;11.10;99.90;;;;;;5029807;28;20037;-74
2022/10/24 01:53:42;;;;;;;0.30;0.30;;;11.20;99.90;;;;;;5027319;28;20571;-74
2022/10/24 01:56:08;;;;;;;0.85;0.85;;;11.10;99.90;;;;;;5029318;28;20438;-74
2022/10/24 01:58:33;;;;;;;0.40;0.40;;;11.20;99.90;;;;;;5016004;28;20105;-74
2022/10/24 02:01:05;;;;;;;0.30;0.30;;;11.30;99.90;;;;;;5029010;28;20025;-74
2022/10/24 02:03:43;;;;;;;0.75;0.75;;;11.20;99.90;;;;;;5030887;28;20034;-74
2022/10/24 02:06:14;;;;;;;0.47;0.47;;;11.10;99.90;;;;;;5029043;28;20455;-75
2022/10/24 02:08:45;;;;;;;0.32;0.32;;;11.20;99.90;;;;;;5039662;28;20044;-75
2022/10/24 02:11:11;;;;;;;0.77;0.77;;;11.20;99.90;;;;;;5046280;28;20132;-74
2022/10/24 02:13:58;;;;;;;0.60;0.60;;;11.30;99.90;;;;;;5034242;28;20112;-74
2022/10/24 02:16:25;;;;;;;0.40;0.40;;;11.30;99.90;;;;;;5027673;28;20045;-74
2022/10/24 02:18:53;;;;;;;0.55;0.55;;;11.30;99.90;;;;;;5027565;28;20534;-75
2022/10/24 02:21:44;;;;;;;1.23;1.10;;;11.40;99.90;;;;;;5027070;28;20416;-75
2022/10/24 02:24:23;;;;;;;0.40;0.40;;;11.40;99.90;;;;;;5028930;28;20030;-74
2022/10/24 02:26:54;;;;;;;3.50;2.58;;;11.40;99.90;;;;;;5032052;28;20030;-74
2022/10/24 02:29:38;;;;;;;0.40;0.40;;;11.40;99.90;;;;;;5032368;28;20033;-75
2022/10/24 02:32:08;;;;;;;0.65;0.65;;;11.40;99.90;;;;;;5032654;28;20127;-74
2022/10/24 02:34:35;;;;;;;0.95;0.80;;;11.40;99.90;;;;;;5032551;28;20025;-75
2022/10/24 02:37:04;;;;;;;1.48;1.38;;;11.30;99.90;;;;;;5030168;28;20060;-74
2022/10/24 02:39:31;;;;;;;1.20;1.02;;;11.30;99.90;;;;;;5031307;28;20040;-74
2022/10/24 02:41:58;;;;;;;;;;;11.40;99.90;;;;;;5033572;28;20060;-73
2022/10/24 02:44:24;;;;;;;0.32;0.32;;;11.30;99.90;;;;;;5031723;28;19913;-74
2022/10/24 02:46:53;;;;;;;0.60;0.60;;;11.30;99.90;;;;;;5031747;28;20026;-74
2022/10/24 02:49:19;;;;;;;1.02;1.02;;;11.30;99.90;;;;;;5031200;28;20029;-75
2022/10/24 02:51:46;;;;;;;0.60;0.60;;;11.20;99.90;;;;;;5030555;28;20034;-74
2022/10/24 02:54:11;;;;;;;0.70;0.70;;;11.20;99.90;;;;;;5032652;28;20496;-74
2022/10/24 02:56:42;;;;;;;3.37;2.00;;;11.20;99.90;;;;;;5032893;28;20033;-74
2022/10/24 02:59:08;;;;;;;0.40;0.40;;;11.20;99.90;;;;;;5030827;28;20030;-73
2022/10/24 03:01:34;;;;;;;0.40;0.40;;;11.20;99.90;;;;;;5033037;28;20062;-74
2022/10/24 03:03:59;;;;;;;4.57;1.17;;;11.20;99.90;;;;;;5028147;28;20477;-73
2022/10/24 03:06:25;;;;;;;0.40;0.40;;;11.20;99.90;;;;;;5030931;28;20389;-74
2022/10/24 03:08:50;;;;;;;0.77;0.77;;;11.30;99.90;;;;;;5028608;28;20040;-74
2022/10/24 03:11:16;;;;;;;0.30;0.30;;;11.30;99.90;;;;;;5031374;28;20124;-74
2022/10/24 03:13:41;;;;;;;5.20;2.47;;;11.30;99.90;;;;;;5031772;28;20136;-75
2022/10/24 03:16:07;;;;;;;0.50;0.50;;;11.30;99.90;;;;;;5028736;28;20034;-74
2022/10/24 03:18:32;;;;;;;0.70;0.70;;;11.40;99.90;;;;;;5029208;28;20037;-74
2022/10/24 03:20:58;;;;;;;0.73;0.73;;;11.40;99.90;;;;;;5029648;28;20045;-74
2022/10/24 03:23:27;;;;;;;1.40;1.30;;;11.40;99.90;;;;;;5029938;28;20500;-74
2022/10/24 03:25:54;;;;;;;0.30;0.30;;;11.40;99.90;;;;;;5031658;28;20032;-74
2022/10/24 03:28:20;;;;;;;1.73;1.63;;;11.40;99.90;;;;;;5032167;28;20029;-74
2022/10/24 03:30:45;;;;;;;1.97;1.27;;;11.40;99.90;;;;;;5030283;28;20041;-74
2022/10/24 03:33:11;;;;;;;0.40;0.40;;;11.40;99.90;;;;;;5031542;28;20118;-73
2022/10/24 03:35:37;;;;;;;0.97;0.97;;;11.40;99.90;;;;;;5028914;28;21815;-73
2022/10/24 03:38:02;;;;;;;1.60;1.20;;;11.30;99.90;;;;;;5030835;28;20057;-74
2022/10/24 03:40:28;;;;;;;0.73;0.73;;;11.30;99.90;;;;;;5030292;28;20040;-74
2022/10/24 03:42:53;;;;;;;1.27;1.17;;;11.40;99.90;;;;;;5030481;28;20035;-75
2022/10/24 03:45:19;;;;;;;0.80;0.80;;;11.40;99.90;;;;;;5031284;28;20393;-74
2022/10/24 03:47:44;;;;;;;0.57;0.57;;;11.50;99.90;;;;;;5031214;28;20124;-73
2022/10/24 03:50:10;;;;;;;0.90;0.90;;;10.70;99.90;;;;;;5030348;28;20029;-74
2022/10/24 03:52:35;;;;;;;12.27;1.40;;;11.30;99.90;;;;;;5030140;28;20113;-74
2022/10/24 03:55:02;;;;;;;2.50;2.30;;;11.20;99.90;;;;;;5030906;28;20440;-73
2022/10/24 03:57:27;;;;;;;0.77;0.77;;;11.30;99.90;;;;;;5028760;28;20141;-73
2022/10/24 03:59:53;;;;;;;0.33;0.33;;;11.30;99.90;;;;;;5030881;28;20116;-74
2022/10/24 04:02:18;;;;;;;1.83;1.53;;;11.30;99.90;;;;;;5030981;28;20051;-74
2022/10/24 04:04:44;;;;;;;0.87;0.77;;;11.30;99.90;;;;;;5028377;28;20053;-74
2022/10/24 04:07:10;;;;;;;2.50;1.53;;;11.30;99.90;;;;;;5030304;28;20466;-74
2022/10/24 04:09:35;;;;;;;1.27;1.17;;;11.30;99.90;;;;;;5028788;28;20456;-73
2022/10/24 04:12:01;;;;;;;0.43;0.43;;;11.30;99.90;;;;;;5029098;28;20037;-74
2022/10/24 04:14:26;;;;;;;1.00;1.00;;;11.30;99.90;;;;;;5029671;28;20038;-74
2022/10/24 04:16:52;;;;;;;0.70;0.70;;;11.30;99.90;;;;;;5029733;28;22087;-74
2022/10/24 04:19:18;;;;;;;0.43;0.43;;;11.30;99.90;;;;;;5031335;28;20440;-74
2022/10/24 04:21:44;;;;;;;0.40;0.40;;;11.30;99.90;;;;;;5029048;28;20935;-74
2022/10/24 04:24:10;;;;;;;0.98;0.98;;;11.30;99.90;;;;;;5030428;28;20417;-74
2022/10/24 04:26:36;;;;;;;0.85;0.85;;;11.40;99.90;;;;;;5028318;28;20087;-73
2022/10/24 04:29:01;;;;;;;1.07;0.97;;;11.40;99.90;;;;;;5028834;28;20033;-74
2022/10/24 04:31:27;;;;;;;0.83;0.83;;;11.30;99.90;;;;;;5031129;28;20481;-75
2022/10/24 04:33:52;;;;;;;0.53;0.53;;;11.30;99.90;;;;;;5029571;28;20041;-74
2022/10/24 04:36:19;;;;;;;0.60;0.60;;;11.30;99.90;;;;;;5028851;28;20389;-74
2022/10/24 04:38:45;;;;;;;;;;;11.30;99.90;;;;;;5028995;28;20160;-74
2022/10/24 04:41:11;;;;;;;0.45;0.45;;;11.30;99.90;;;;;;5029575;28;20415;-73
2022/10/24 04:43:37;;;;;;;0.90;0.90;;;11.30;99.90;;;;;;5028912;28;20045;-73
2022/10/24 04:46:02;;;;;;;0.70;0.70;;;11.30;99.90;;;;;;5028159;28;20370;-74
2022/10/24 04:48:28;;;;;;;1.60;1.50;;;11.20;99.90;;;;;;5026272;28;20124;-74
2022/10/24 04:50:54;;;;;;;0.40;0.40;;;11.20;99.90;;;;;;5030210;28;20037;-73
2022/10/24 04:53:19;;;;;;;1.50;1.40;;;11.20;99.90;;;;;;5030193;28;20584;-74
2022/10/24 04:55:45;;;;;;;1.40;1.30;;;11.30;99.90;;;;;;5028816;28;20033;-74
2022/10/24 04:58:11;;;;;;;0.57;0.57;;;11.30;99.90;;;;;;5029418;28;20034;-75
2022/10/24 05:00:37;;;;;;;1.00;0.97;;;11.20;99.90;;;;;;5029303;28;20377;-74
2022/10/24 05:03:02;;;;;;;0.57;0.57;;;11.20;99.90;;;;;;5028554;28;20278;-74
2022/10/24 05:05:28;;;;;;;0.43;0.43;;;11.20;99.90;;;;;;5031088;28;20042;-74
2022/10/24 05:07:54;;;;;;;0.47;0.47;;;11.30;99.90;;;;;;5027866;28;20465;-75
2022/10/24 05:10:19;;;;;;;1.17;1.13;;;11.20;99.90;;;;;;5026406;28;20034;-73
2022/10/24 05:12:45;;;;;;;11.07;2.10;;;11.20;99.90;;;;;;5029629;28;20105;-74
2022/10/24 05:15:10;;;;;;;1.83;1.10;;;11.20;99.90;;;;;;5028523;28;20053;-74
2022/10/24 05:17:36;;;;;;;0.83;0.83;;;11.30;99.90;;;;;;5029093;28;20039;-73
2022/10/24 05:20:02;;;;;;;0.57;0.53;;;11.30;99.90;;;;;;5030151;28;20432;-75
2022/10/24 05:22:28;;;;;;;0.30;0.30;;;11.30;99.90;;;;;;5027572;28;20103;-74
2022/10/24 05:24:54;;;;;;;1.30;1.23;;;11.30;99.90;;;;;;5028735;28;20041;-73
2022/10/24 05:27:23;;;;;;;1.27;1.17;;;11.30;99.90;;;;;;5028612;28;20552;-75
2022/10/24 05:29:50;;;;;;;0.73;0.73;;;11.40;99.90;;;;;;5030370;28;20057;-74
2022/10/24 05:32:16;;;;;;;1.23;1.10;;;11.30;99.90;;;;;;5028559;28;20087;-75
2022/10/24 05:34:41;;;;;;;1.77;1.67;;;11.30;99.90;;;;;;5027675;28;20030;-74
2022/10/24 05:37:07;;;;;;;0.70;0.70;;;11.40;99.90;;;;;;5029639;28;20040;-74
2022/10/24 05:39:33;;;;;;;1.67;1.57;;;11.40;99.90;;;;;;5029589;28;20172;-74
2022/10/24 05:41:58;;;;;;;1.03;0.97;;;11.40;99.90;;;;;;5026853;28;20029;-74
2022/10/24 05:44:24;;;;;;;2.13;1.83;;;11.40;99.90;;;;;;5029309;28;20038;-74
2022/10/24 05:46:50;;;;;;;0.57;0.57;;;11.60;99.90;;;;;;5029419;28;20465;-75
2022/10/24 05:49:15;;;;;;;1.40;1.33;;;11.50;99.90;;;;;;5029549;28;20075;-74
2022/10/24 05:51:41;;;;;;;1.40;1.30;;;11.50;99.90;;;;;;5029319;28;20042;-74
2022/10/24 05:54:06;;;;;;;1.63;1.53;;;11.50;99.90;;;;;;5028036;28;20036;-74
2022/10/24 05:56:32;;;;;;;0.80;0.80;;;11.50;99.90;;;;;;5029075;28;20124;-74
2022/10/24 05:58:57;;;;;;;0.67;0.60;;;11.60;99.90;;;;;;5028661;28;20459;-74
2022/10/24 06:01:23;;;;;;;1.17;1.13;;;11.60;99.90;;;;;;5033968;28;20021;-74
2022/10/24 06:03:49;;;;;;;0.50;0.50;;;11.60;99.90;;;;;;5030423;28;20029;-75
2022/10/24 06:06:15;;;;;;;3.83;2.03;;;11.70;99.90;;;;;;5029868;28;20030;-74
2022/10/24 06:08:41;;;;;;;0.93;0.88;;;11.60;99.90;;;;;;5032216;28;20048;-74
2022/10/24 06:11:10;;;;;;;1.03;1.00;;;11.70;99.90;;;;;;5034446;28;20042;-74
2022/10/24 06:13:36;;;;;;;1.33;1.23;;;13.10;99.90;;;;;;5030422;28;20040;-73
2022/10/24 06:16:02;;;;;;;1.85;1.75;;;11.70;99.90;;;;;;5033504;28;20037;-74
2022/10/24 06:18:28;;;;;;;1.23;1.13;;;11.70;99.90;;;;;;5032442;28;20156;-74
2022/10/24 06:20:53;;;;;;;0.90;0.87;;;11.70;99.90;;;;;;5033062;28;20100;-74
2022/10/24 06:23:19;;;;;;;2.40;2.20;;;11.60;99.90;;;;;;5031227;28;20036;-74
2022/10/24 06:25:44;;;;;;;0.63;0.63;;;11.70;99.90;;;;;;5032114;28;20059;-73
2022/10/24 06:28:11;;;;;;;1.77;1.67;;;11.70;99.90;;;;;;5032426;28;20074;-73
2022/10/24 06:30:38;;;;;;;1.27;1.23;;;11.70;99.90;;;;;;5031422;28;20214;-74
2022/10/24 06:33:04;;;;;;;5.05;2.05;;;11.70;99.90;;;;;;5031284;28;20064;-75
2022/10/24 06:35:30;;;;;;;1.50;1.40;;;11.80;99.90;;;;;;5012147;28;20038;-74
2022/10/24 06:37:56;;;;;;;0.63;0.63;;;11.70;99.90;;;;;;5021305;28;20477;-73
2022/10/24 06:40:21;;;;;;;1.73;1.17;;;11.80;99.90;;;;;;5030414;28;20477;-75
2022/10/24 06:42:47;;;;;;;2.00;1.83;;;11.80;99.90;;;;;;5030712;28;20187;-73
2022/10/24 06:45:13;;;;;;;1.77;1.27;;;11.80;99.90;;;;;;5030806;28;20114;-75
2022/10/24 06:47:38;;;;;;;1.47;1.37;;;11.80;99.90;;;;;;5031857;28;20041;-74
2022/10/24 06:50:05;;;;;;;1.00;1.00;;;11.80;99.90;;;;;;5030658;28;20401;-74
2022/10/24 06:52:31;;;;;;;1.15;1.15;;;11.80;99.90;;;;;;5032073;28;20178;-74
2022/10/24 06:54:56;;;;;;;1.63;1.17;;;11.80;99.90;;;;;;5030721;28;20088;-75
2022/10/24 06:57:22;;;;;;;0.63;0.63;;;11.80;99.90;;;;;;5031575;28;20389;-75
2022/10/24 06:59:47;;;;;;;0.80;0.80;;;11.80;99.90;;;;;;5031437;28;20032;-74
2022/10/24 07:02:14;;;;;;;1.23;1.17;;;11.80;99.90;;;;;;5032075;28;20017;-74
2022/10/24 07:04:40;;;;;;;;;;;11.80;99.90;;;;;;5029016;28;20025;-75
2022/10/24 07:07:05;;;;;;;0.57;0.57;;;11.80;99.90;;;;;;5031193;28;20357;-75
2022/10/24 07:09:31;;;;;;;1.73;1.60;;;11.80;99.90;;;;;;5032554;28;20034;-75
2022/10/24 07:11:58;;;;;;;0.40;0.40;;;11.80;99.90;;;;;;5030742;28;20536;-74
2022/10/24 07:14:24;;;;;;;1.00;0.95;;;11.80;99.90;;;;;;5029425;28;20486;-73
2022/10/24 07:16:50;;;;;;;0.68;0.68;;;13.60;99.90;;;;;;5030623;28;20489;-75
2022/10/24 07:19:16;;;;;;;0.80;0.80;;;11.80;99.90;;;;;;5030545;28;20052;-74
2022/10/24 07:21:42;;;;;;;1.33;1.23;;;11.80;99.90;;;;;;5030442;28;20033;-74
2022/10/24 07:24:11;;;;;;;1.73;1.63;;;11.80;99.90;;;;;;5031483;28;20021;-74
2022/10/24 07:26:37;;;;;;;1.45;1.35;;;11.90;99.90;;;;;;5030110;28;20030;-73
2022/10/24 07:29:03;;;;;;;1.52;1.42;;;11.90;99.90;;;;;;5029835;28;20112;-74
2022/10/24 07:31:31;;;;;;;4.47;3.93;;;11.90;99.90;;;;;;5030591;28;20179;-74
2022/10/24 07:33:58;;;;;;;0.70;0.70;;;11.90;99.90;;;;;;5029589;28;20068;-74
2022/10/24 07:36:25;;;;;;;;;;;12.00;99.90;;;;;;5031612;28;20029;-75
2022/10/24 07:38:53;;;;;;;1.67;1.35;;;12.00;99.90;;;;;;5028867;28;20284;-75
2022/10/24 07:41:19;;;;;;;1.15;1.15;;;12.00;99.90;;;;;;5030839;28;20393;-75
2022/10/24 07:43:45;;;;;;;2.67;2.47;;;13.20;99.90;;;;;;5031172;28;20029;-75
2022/10/24 07:46:13;;;;;;;1.87;1.77;;;12.00;99.90;;;;;;5031087;28;20025;-75
2022/10/24 07:48:41;;;;;;;0.55;0.55;;;11.90;99.90;;;;;;5029942;28;20045;-74
2022/10/24 07:51:09;;;;;;;1.70;1.60;;;12.00;99.90;;;;;;5032471;28;20025;-76
2022/10/24 07:53:35;;;;;;;2.60;1.27;;;12.10;99.90;;;;;;5031463;28;20325;-76
2022/10/24 07:56:01;;;;;;;0.53;0.53;;;12.10;99.90;;;;;;5029374;28;20068;-75
2022/10/24 07:58:27;;;;;;;2.53;1.23;;;12.10;99.90;;;;;;5029801;28;20385;-75
2022/10/24 08:00:53;;;;;;;3.08;1.15;;;12.10;99.90;;;;;;5030844;28;20040;-73
2022/10/24 08:03:19;;;;;;;0.93;0.93;;;12.10;99.90;;;;;;5029607;28;20105;-74
2022/10/24 08:05:45;;;;;;;2.87;2.50;;;12.20;99.90;;;;;;5028899;28;20036;-75
2022/10/24 08:08:11;;;;;;;4.85;2.35;;;12.20;99.90;;;;;;5031013;28;20362;-75
2022/10/24 08:10:37;;;;;;;1.23;1.20;;;12.40;99.90;;;;;;5032000;28;20038;-75
2022/10/24 08:13:04;;;;;;;2.60;1.90;;;12.30;99.90;;;;;;5029014;28;20331;-75
2022/10/24 08:15:29;;;;;;;1.25;1.20;;;12.30;99.90;;;;;;5027322;28;20324;-74
2022/10/24 08:17:55;;;;;;;0.50;0.50;;;12.40;99.90;;;;;;5028697;28;20037;-74
2022/10/24 08:20:23;;;;;;;2.47;1.93;;;12.30;99.90;;;;;;5030430;28;20068;-73
2022/10/24 08:22:51;;;;;;;0.73;0.73;;;12.40;99.90;;;;;;5028736;28;20393;-75
2022/10/24 08:25:17;;;;;;;1.25;1.15;;;12.40;99.90;;;;;;5029886;28;20033;-74
2022/10/24 08:27:42;;;;;;;6.20;2.63;;;12.40;99.90;;;;;;5029548;28;20065;-74
2022/10/24 08:30:08;;;;;;;1.53;1.43;;;12.40;99.90;;;;;;5027593;28;20044;-75
2022/10/24 08:32:35;;;;;;;2.73;2.37;;;12.40;99.90;;;;;;5030584;28;20021;-74
2022/10/24 08:35:00;;;;;;;;;;;12.50;99.90;;;;;;5031422;28;20406;-75
2022/10/24 08:37:26;;;;;;;0.60;0.55;;;12.60;99.90;;;;;;5029980;28;19909;-75
2022/10/24 08:39:55;;;;;;;2.60;1.87;;;12.60;99.90;;;;;;5028987;28;20037;-75
2022/10/24 08:42:23;;;;;;;4.68;2.38;;;12.60;99.90;;;;;;5029955;28;20100;-75
2022/10/24 08:44:50;;;;;;;1.30;1.20;;;12.70;99.90;;;;;;5029478;28;20124;-75
2022/10/24 08:47:21;;;;;;;1.85;1.73;;;12.70;99.90;;;;;;5029795;28;20060;-74
2022/10/24 08:50:17;;;;;;;16.20;3.00;;;12.70;99.90;;;;;;5031782;28;20113;-74
2022/10/24 08:52:47;;;;;;;0.85;0.85;;;12.70;99.90;;;;;;5026829;28;20041;-72
2022/10/24 08:55:24;;;;;;;1.17;1.13;;;12.80;99.90;;;;;;5023597;28;20099;-74
2022/10/24 08:57:53;;;;;;;0.82;0.82;;;12.80;99.90;;;;;;5024104;28;20033;-72
2022/10/24 09:00:23;;;;;;;1.45;1.35;;;12.80;99.90;;;;;;5020996;28;20029;-73
2022/10/24 09:02:56;;;;;;;3.13;1.10;;;12.90;99.90;;;;;;5025265;28;20448;-72
2022/10/24 09:05:39;;;;;;;0.85;0.85;;;13.00;99.90;;;;;;5025991;28;20055;-73
2022/10/24 09:08:29;;;;;;;1.63;1.23;;;13.00;99.90;;;;;;5027990;28;20029;-73
2022/10/24 09:10:59;;;;;;;0.50;0.50;;;13.10;99.90;;;;;;5017637;28;20042;-73
2022/10/24 09:13:27;;;;;;;1.25;1.15;;;13.10;99.90;;;;;;5027212;28;20083;-73
2022/10/24 09:15:53;;;;;;;1.20;1.10;;;13.00;99.90;;;;;;5021357;28;20481;-72
2022/10/24 09:18:24;;;;;;;4.33;2.10;;;13.10;99.90;;;;;;5024797;28;20046;-71
2022/10/24 09:20:51;;;;;;;0.77;0.77;;;13.10;99.90;;;;;;5019684;28;20026;-72
2022/10/24 09:23:19;;;;;;;1.75;1.65;;;13.20;99.90;;;;;;5028602;28;20649;-73
2022/10/24 09:25:50;;;;;;;2.60;2.40;;;13.60;99.90;;;;;;5031744;28;20041;-70
2022/10/24 09:28:16;;;;;;;2.88;1.95;;;15.10;99.90;;;;;;5032057;28;20033;-72
2022/10/24 09:30:42;;;;;;;1.03;1.03;;;13.80;99.90;;;;;;5051365;28;20130;-71
2022/10/24 09:33:26;;;;;;;1.83;1.73;;;13.40;99.90;;;;;;5038662;28;20083;-73
2022/10/24 09:35:54;;;;;;;0.77;0.77;;;13.40;99.90;;;;;;5027097;28;20658;-72
2022/10/24 09:38:24;;;;;;;0.77;0.77;;;13.40;99.90;;;;;;5030427;28;20037;-72
2022/10/24 09:40:52;;;;;;;2.63;2.35;;;13.40;99.90;;;;;;5029405;28;20034;-73
2022/10/24 09:43:20;;;;;;;2.17;1.80;;;13.40;99.90;;;;;;5031010;28;20021;-70
2022/10/24 09:45:49;;;;;;;0.63;0.63;;;13.30;99.90;;;;;;5033918;28;20136;-71
2022/10/24 09:48:23;;;;;;;1.00;1.00;;;13.40;99.90;;;;;;5023447;28;20046;-73
2022/10/24 09:50:51;;;;;;;3.35;1.25;;;13.40;99.90;;;;;;5025809;28;20406;-73
2022/10/24 09:53:26;;;;;;;2.05;1.73;;;13.40;99.90;;;;;;5031113;28;20044;-71
2022/10/24 09:55:58;;;;;;;1.40;1.30;;;13.40;99.90;;;;;;5030850;28;20034;-72
2022/10/24 09:58:31;;;;;;;2.67;2.47;;;13.40;99.90;;;;;;5027438;28;20034;-72
2022/10/24 10:01:04;;;;;;;1.73;1.63;;;13.40;99.90;;;;;;5025480;28;20037;-73
2022/10/24 10:03:31;;;;;;;4.25;3.85;;;13.40;99.90;;;;;;5032675;28;20021;-72
2022/10/24 10:06:03;;;;;;;0.40;0.40;;;13.40;99.90;;;;;;5032405;28;20072;-73
2022/10/24 10:08:32;;;;;;;1.95;1.45;;;13.30;99.90;;;;;;5029761;28;20195;-73
2022/10/24 10:11:00;;;;;;;3.30;2.88;;;13.40;99.90;;;;;;5025528;28;20096;-72
2022/10/24 10:13:27;;;;;;;2.22;2.03;;;13.50;99.90;;;;;;5027628;28;20148;-74
2022/10/24 10:15:59;;;;;;;0.90;0.90;;;13.50;99.90;;;;;;5029477;28;20107;-72
2022/10/24 10:18:39;;;;;;;4.38;3.83;;;13.60;99.90;;;;;;5021866;28;20077;-72
2022/10/24 10:21:18;;;;;;;1.27;1.17;;;13.60;99.90;;;;;;5034134;28;20057;-72
2022/10/24 10:23:49;;;;;;;2.15;1.95;;;13.60;99.90;;;;;;5032708;28;20021;-71
2022/10/24 10:26:43;;;;;;;1.60;1.50;;;13.60;99.90;;;;;;5028013;28;20049;-70
2022/10/24 10:29:17;;;;;;;4.25;1.50;;;13.60;99.90;;;;;;5028069;28;20133;-70
2022/10/24 10:31:48;;;;;;;0.30;0.30;;;13.60;99.90;;;;;;5031723;28;20033;-70
2022/10/24 10:34:14;;;;;;;0.52;0.52;;;13.60;99.90;;;;;;5019752;28;20061;-71
2022/10/24 10:36:48;;;;;;;1.93;1.83;;;13.60;99.90;;;;;;5028733;28;20052;-73
2022/10/24 10:39:21;;;;;;;1.55;0.88;;;13.70;99.90;;;;;;5027763;28;20021;-72
2022/10/24 10:41:52;;;;;;;0.88;0.88;;;13.70;99.90;;;;;;5034363;28;20026;-72
2022/10/24 10:44:47;;;;;;;1.50;1.40;;;13.70;99.90;;;;;;5031829;28;20040;-73
2022/10/24 10:47:47;;;;;;;3.22;2.30;;;13.70;99.90;;;;;;5033237;28;20036;-72
2022/10/24 10:50:38;;;;;;;2.78;1.10;;;13.70;99.90;;;;;;5031481;28;20029;-74
2022/10/24 10:53:25;;;;;;;0.63;0.63;;;13.60;99.90;;;;;;5034327;28;20025;-73
2022/10/24 10:56:21;;;;;;;1.58;1.48;;;13.60;99.90;;;;;;5025472;28;20065;-70
2022/10/24 10:59:12;;;;;;;1.55;1.25;;;13.60;99.90;;;;;;5026277;28;20033;-71
2022/10/24 11:01:50;;;;;;;0.40;0.40;;;13.60;99.90;;;;;;5028786;28;20125;-73
2022/10/24 11:04:21;;;;;;;1.83;1.73;;;13.60;99.90;;;;;;5029628;28;20026;-69
2022/10/24 11:06:59;;;;;;;0.90;0.90;;;13.60;99.90;;;;;;5029496;28;20052;-68
2022/10/24 11:09:31;;;;;;;1.65;1.55;;;13.60;99.90;;;;;;5023926;28;20040;-71
2022/10/24 11:12:16;;;;;;;1.60;1.50;;;13.60;99.90;;;;;;5028345;28;20095;-70
2022/10/24 11:14:54;;;;;;;0.60;0.60;;;13.60;99.90;;;;;;5012742;28;20021;-71
2022/10/24 11:17:31;;;;;;;0.55;0.55;;;13.50;99.90;;;;;;5031909;28;20037;-69
2022/10/24 11:20:11;;;;;;;2.03;1.55;;;13.50;99.90;;;;;;5020177;28;20052;-71
2022/10/24 11:22:45;;;;;;;3.58;2.38;;;13.50;99.90;;;;;;5020061;28;20030;-71
2022/10/24 11:25:32;;;;;;;3.53;2.17;;;13.60;99.90;;;;;;5022994;28;20053;-71
2022/10/24 11:28:13;;;;;;;3.05;2.80;;;13.40;99.90;;;;;;5025600;28;20045;-70
2022/10/24 11:30:48;;;;;;;1.85;1.45;;;13.40;99.90;;;;;;5025334;28;20065;-71
2022/10/24 11:33:20;;;;;;;1.20;1.05;;;13.40;99.90;;;;;;5023240;28;20386;-70
2022/10/24 11:36:06;;;;;;;3.85;1.80;;;13.40;99.90;;;;;;5020716;28;20084;-68
2022/10/24 11:38:44;;;;;;;1.73;1.55;;;13.40;99.90;;;;;;5026825;28;20080;-64
2022/10/24 11:41:29;;;;;;;0.40;0.40;;;13.50;99.90;;;;;;5023852;28;20037;-69
2022/10/24 11:44:01;;;;;;;2.22;2.10;;;13.50;99.90;;;;;;5023420;28;20387;-72
2022/10/24 11:46:43;;;;;;;2.47;2.33;;;13.50;99.90;;;;;;5031533;28;20033;-71
2022/10/24 11:49:22;;;;;;;2.85;0.95;;;13.60;99.90;;;;;;5027824;28;20045;-69
2022/10/24 11:52:19;;;;;;;1.35;1.25;;;13.70;99.90;;;;;;5028030;28;20057;-67
2022/10/24 11:54:54;;;;;;;2.67;1.60;;;13.80;99.90;;;;;;5024819;28;20041;-70
2022/10/24 11:57:26;;;;;;;3.83;1.38;;;13.10;99.90;;;;;;5022316;28;20045;-69
2022/10/24 11:59:53;;;;;;;1.45;1.35;;;13.90;99.90;;;;;;5020113;28;20050;-68
2022/10/24 12:03:07;;;;;;;0.68;0.68;;;13.90;99.90;;;;;;5023426;28;20052;-69
2022/10/24 12:06:11;;;;;;;1.48;1.38;;;13.90;99.90;;;;;;5021739;28;20029;-67
2022/10/24 12:09:05;;;;;;;3.63;1.73;;;13.90;99.90;;;;;;5024680;28;20045;-69
2022/10/24 12:11:34;;;;;;;2.28;2.05;;;13.90;99.90;;;;;;5035051;28;20132;-67
2022/10/24 12:14:23;;;;;;;0.40;0.40;;;14.00;99.90;;;;;;5016507;28;20052;-68
2022/10/24 12:17:10;;;;;;;1.67;1.58;;;14.10;99.90;;;;;;5025495;28;20041;-70
2022/10/24 12:19:42;;;;;;;0.53;0.53;;;14.20;99.90;;;;;;5025230;28;20404;-70
2022/10/24 12:22:22;;;;;;;0.98;0.98;;;14.30;99.90;;;;;;5027162;28;20289;-71
2022/10/24 12:25:00;;;;;;;1.10;0.95;;;14.30;99.90;;;;;;5021129;28;20024;-70
2022/10/24 12:27:38;;;;;;;0.35;0.35;;;14.30;99.90;;;;;;5024135;28;20030;-68
2022/10/24 12:30:16;;;;;;;0.63;0.63;;;13.50;99.90;;;;;;5024180;28;20033;-69
2022/10/24 12:32:48;;;;;;;1.35;1.23;;;14.30;99.90;;;;;;5025316;28;20029;-70
2022/10/24 12:35:26;;;;;;;0.80;0.80;;;14.30;99.90;;;;;;5019259;28;20034;-69
2022/10/24 12:37:52;;;;;;;0.65;0.65;;;14.30;99.90;;;;;;5027505;28;20040;-70
2022/10/24 12:40:48;;;;;;;3.03;1.58;;;14.20;99.90;;;;;;5023820;28;20030;-71
2022/10/24 12:43:46;;;;;;;0.77;0.77;;;14.20;99.90;;;;;;5016469;28;20046;-70
2022/10/24 12:46:15;;;;;;;0.30;0.30;;;14.20;99.90;;;;;;5026671;28;20021;-70
2022/10/24 12:48:57;;;;;;;1.52;1.42;;;14.20;99.90;;;;;;5025512;28;20099;-69
2022/10/24 12:51:35;;;;;;;0.70;0.70;;;14.20;99.90;;;;;;5018712;28;20481;-70
2022/10/24 12:54:17;;;;;;;0.68;0.68;;;14.20;99.90;;;;;;5025172;28;20493;-70
2022/10/24 12:56:48;;;;;;;1.00;1.00;;;14.20;99.90;;;;;;5022649;28;20516;-71
2022/10/24 12:59:24;;;;;;;1.00;1.00;;;14.20;99.90;;;;;;5022048;28;20042;-71
2022/10/24 13:02:13;;;;;;;0.40;0.40;;;14.30;99.90;;;;;;5021398;28;20030;-70
2022/10/24 13:05:11;;;;;;;0.38;0.38;;;14.20;99.90;;;;;;5022562;28;20036;-70
2022/10/24 13:07:48;;;;;;;0.52;0.52;;;14.30;99.90;;;;;;5029965;28;20021;-70